Black Diamond, Canada
Current Conditions -  °F | °C
As of 5:00 PM on Sunday 23 Nov 2014 (Local Time) from CYBW Reporting Station
Overcast Overcast  
Wind Chill: 27°   Ceiling: 16000
Heat Index: 36°   Visibility: 9mi
Dew Point: 18°   Wind: 14mph
Humidity: 48%   Direction: 280°W
Pressure: 29.66"   Gusts: NA
Location:  50.7°N, 114.23°W
Report Text: CYBW 240000Z AUTO 28012KT 9SM OVC160 02/M08 A2966 RMK SLP096
Loading
Personal Weather Stations






























Interactive Weather Map New forecast layout! Learn more

10-Day Weather Forecast

Advertisements
Track Severe Weather on mobile